Time;durP1;ratioP1;P1;durP2;ratioP2;P2;SDS_P1;SDS_P2;PMS_P1;PMS_P2;Temp;Humidity;BMP_temperature;BMP_pressure;BME280_temperature;BME280_humidity;BME280_pressure;Samples;Min_cycle;Max_cycle;Signal;HPM_P1;HPM_P2
2022/10/15 00:01:40;;;;;;;1.33;0.88;;;;;;;;;;5084800;28;20059;-49
2022/10/15 00:04:06;;;;;;;0.70;0.70;;;;;;;;;;5084754;28;20062;-50
2022/10/15 00:06:33;;;;;;;1.52;0.70;;;;;;;;;;5067913;28;20056;-48
2022/10/15 00:09:00;;;;;;;1.27;0.88;;;;;;;;;;5064565;28;20519;-53
2022/10/15 00:11:28;;;;;;;0.60;0.60;;;;;;;;;;5064653;28;20130;-50
2022/10/15 00:13:54;;;;;;;0.70;0.70;;;;;;;;;;5064426;28;20407;-52
2022/10/15 00:16:23;;;;;;;0.85;0.85;;;;;;;;;;5063540;28;20025;-50
2022/10/15 00:18:50;;;;;;;0.98;0.88;;;;;;;;;;5064517;28;20033;-51
2022/10/15 00:21:18;;;;;;;0.82;0.60;;;;;;;;;;5079525;28;20085;-50
2022/10/15 00:23:45;;;;;;;1.05;0.95;;;;;;;;;;5084452;28;20085;-50
2022/10/15 00:26:13;;;;;;;1.10;1.00;;;;;;;;;;5084391;28;20024;-48
2022/10/15 00:28:39;;;;;;;1.20;1.10;;;;;;;;;;5084384;28;20033;-51
2022/10/15 00:31:07;;;;;;;1.27;0.80;;;;;;;;;;5082629;28;20024;-51
2022/10/15 00:33:33;;;;;;;0.93;0.75;;;;;;;;;;5065951;28;20020;-49
2022/10/15 00:36:01;;;;;;;0.90;0.80;;;;;;;;;;5068156;28;20396;-49
2022/10/15 00:38:27;;;;;;;1.05;0.75;;;;;;;;;;5068118;28;20496;-51
2022/10/15 00:40:54;;;;;;;0.98;0.80;;;;;;;;;;5068704;28;20060;-49
2022/10/15 00:43:55;;;;;;;1.23;0.80;;;;;;;;;;5068129;28;20024;-48
2022/10/15 00:46:39;;;;;;;1.27;0.90;;;;;;;;;;5005563;28;20030;-50
2022/10/15 00:49:16;;;;;;;0.75;0.75;;;;;;;;;;5064593;28;20040;-51
2022/10/15 00:51:48;;;;;;;0.80;0.80;;;;;;;;;;5087792;28;20047;-48
2022/10/15 00:54:15;;;;;;;1.05;0.65;;;;;;;;;;5088299;28;20020;-53
2022/10/15 00:56:43;;;;;;;1.77;0.85;;;;;;;;;;5087810;28;20130;-50
2022/10/15 00:59:10;;;;;;;0.93;0.88;;;;;;;;;;5087313;28;20032;-52
2022/10/15 01:01:36;;;;;;;0.80;0.70;;;;;;;;;;5087695;28;20645;-50
2022/10/15 01:04:04;;;;;;;1.27;0.90;;;;;;;;;;5087852;28;20035;-52
2022/10/15 01:06:31;;;;;;;1.20;1.10;;;;;;;;;;5087371;28;20024;-49
2022/10/15 01:08:58;;;;;;;2.13;1.00;;;;;;;;;;5087720;28;20052;-47
2022/10/15 01:11:40;;;;;;;2.00;1.02;;;;;;;;;;5088546;28;20501;-49
2022/10/15 01:14:06;;;;;;;1.15;0.90;;;;;;;;;;5075582;28;20447;-49
2022/10/15 01:16:39;;;;;;;1.35;1.10;;;;;;;;;;5067055;28;20097;-51
2022/10/15 01:19:18;;;;;;;1.33;0.90;;;;;;;;;;5067348;28;20107;-48
2022/10/15 01:21:50;;;;;;;0.88;0.85;;;;;;;;;;5066999;28;20040;-50
2022/10/15 01:24:25;;;;;;;1.25;1.00;;;;;;;;;;5067259;28;20118;-50
2022/10/15 01:26:54;;;;;;;1.13;1.00;;;;;;;;;;5085801;28;20510;-49
2022/10/15 01:29:29;;;;;;;0.90;0.70;;;;;;;;;;5087550;28;20039;-48
2022/10/15 01:31:56;;;;;;;1.80;0.80;;;;;;;;;;5087865;28;20028;-48
2022/10/15 01:34:30;;;;;;;0.82;0.70;;;;;;;;;;5088397;28;20069;-48
2022/10/15 01:36:57;;;;;;;1.50;0.95;;;;;;;;;;5087267;28;20298;-51
2022/10/15 01:39:33;;;;;;;2.30;1.15;;;;;;;;;;5087979;28;20454;-51
2022/10/15 01:42:01;;;;;;;1.10;1.00;;;;;;;;;;5087287;28;20039;-50
2022/10/15 01:44:30;;;;;;;1.63;1.00;;;;;;;;;;5086098;28;20036;-48
2022/10/15 01:47:08;;;;;;;1.13;0.90;;;;;;;;;;5067326;28;20047;-50
2022/10/15 01:49:36;;;;;;;1.42;0.80;;;;;;;;;;5066731;28;20032;-49
2022/10/15 01:52:06;;;;;;;1.25;0.85;;;;;;;;;;5067074;28;20024;-48
2022/10/15 01:54:33;;;;;;;0.60;0.60;;;;;;;;;;5077191;28;20039;-50
2022/10/15 01:57:00;;;;;;;0.68;0.68;;;;;;;;;;5086960;28;20020;-49
2022/10/15 01:59:28;;;;;;;0.95;0.70;;;;;;;;;;5087526;28;20091;-47
2022/10/15 02:01:54;;;;;;;1.38;0.65;;;;;;;;;;5087169;28;20069;-49
2022/10/15 02:04:24;;;;;;;0.70;0.70;;;;;;;;;;5072584;28;20536;-48
2022/10/15 02:07:09;;;;;;;1.23;1.00;;;;;;;;;;5065907;28;20032;-50
2022/10/15 02:09:44;;;;;;;0.90;0.77;;;;;;;;;;5066287;28;20055;-50
2022/10/15 02:12:11;;;;;;;1.08;0.63;;;;;;;;;;5069886;28;20056;-47
2022/10/15 02:14:45;;;;;;;0.98;0.63;;;;;;;;;;5067386;28;20038;-51
2022/10/15 02:17:14;;;;;;;1.15;0.75;;;;;;;;;;5065932;28;20040;-50
2022/10/15 02:19:51;;;;;;;0.75;0.70;;;;;;;;;;5066655;28;20089;-48
2022/10/15 02:22:22;;;;;;;0.75;0.63;;;;;;;;;;5066109;28;20033;-51
2022/10/15 02:25:10;;;;;;;1.13;0.60;;;;;;;;;;5066126;28;20052;-48
2022/10/15 02:27:37;;;;;;;1.55;0.80;;;;;;;;;;5068299;28;20051;-47
2022/10/15 02:30:06;;;;;;;1.88;0.70;;;;;;;;;;5066022;28;20024;-48
2022/10/15 02:32:35;;;;;;;1.15;0.70;;;;;;;;;;5065377;28;20025;-53
2022/10/15 02:35:02;;;;;;;1.42;0.82;;;;;;;;;;5066271;28;20446;-49
2022/10/15 02:37:29;;;;;;;0.50;0.50;;;;;;;;;;5065447;28;20100;-51
2022/10/15 02:39:55;;;;;;;1.73;0.50;;;;;;;;;;5065870;28;20081;-51
2022/10/15 02:42:21;;;;;;;0.60;0.60;;;;;;;;;;5075249;28;20119;-49
2022/10/15 02:44:47;;;;;;;0.47;0.47;;;;;;;;;;5086030;28;20063;-51
2022/10/15 02:47:14;;;;;;;0.52;0.50;;;;;;;;;;5085406;28;20245;-52
2022/10/15 02:49:40;;;;;;;0.60;0.60;;;;;;;;;;5085496;28;20020;-49
2022/10/15 02:52:06;;;;;;;0.63;0.52;;;;;;;;;;5086443;28;20459;-50
2022/10/15 02:54:32;;;;;;;0.75;0.60;;;;;;;;;;5072121;28;20036;-49
2022/10/15 02:56:58;;;;;;;1.70;0.60;;;;;;;;;;5065201;28;20447;-50
2022/10/15 02:59:24;;;;;;;0.57;0.50;;;;;;;;;;5065498;28;20032;-47
2022/10/15 03:01:51;;;;;;;0.70;0.55;;;;;;;;;;5065065;28;20024;-49
2022/10/15 03:04:17;;;;;;;0.82;0.60;;;;;;;;;;5065335;28;20081;-49
2022/10/15 03:06:43;;;;;;;1.00;0.70;;;;;;;;;;5064984;28;20115;-49
2022/10/15 03:09:09;;;;;;;1.67;0.50;;;;;;;;;;5077261;28;20157;-47
2022/10/15 03:11:35;;;;;;;0.40;0.40;;;;;;;;;;5085787;28;20157;-51
2022/10/15 03:14:01;;;;;;;0.93;0.50;;;;;;;;;;5079481;28;20107;-51
2022/10/15 03:16:27;;;;;;;0.40;0.40;;;;;;;;;;5064711;28;20036;-48
2022/10/15 03:18:53;;;;;;;0.40;0.40;;;;;;;;;;5063703;28;20035;-50
2022/10/15 03:21:19;;;;;;;0.75;0.40;;;;;;;;;;5065302;28;20024;-53
2022/10/15 03:23:45;;;;;;;0.35;0.35;;;;;;;;;;5064900;28;20109;-53
2022/10/15 03:26:12;;;;;;;0.40;0.40;;;;;;;;;;5065057;28;20637;-52
2022/10/15 03:28:39;;;;;;;0.70;0.70;;;;;;;;;;5065387;28;20124;-52
2022/10/15 03:31:05;;;;;;;0.80;0.80;;;;;;;;;;5065520;28;20025;-52
2022/10/15 03:33:31;;;;;;;0.47;0.38;;;;;;;;;;5067427;28;20631;-49
2022/10/15 03:35:57;;;;;;;0.75;0.50;;;;;;;;;;5085159;28;20028;-49
2022/10/15 03:38:24;;;;;;;0.40;0.40;;;;;;;;;;5084907;28;20035;-51
2022/10/15 03:40:50;;;;;;;0.40;0.40;;;;;;;;;;5085189;28;20035;-49
2022/10/15 03:43:17;;;;;;;0.47;0.47;;;;;;;;;;5085122;28;20043;-48
2022/10/15 03:45:44;;;;;;;0.85;0.40;;;;;;;;;;5083896;28;20036;-48
2022/10/15 03:48:10;;;;;;;0.40;0.40;;;;;;;;;;5084976;28;20115;-47
2022/10/15 03:50:36;;;;;;;0.35;0.30;;;;;;;;;;5085286;28;20568;-50
2022/10/15 03:53:03;;;;;;;0.40;0.40;;;;;;;;;;5084225;28;20031;-51
2022/10/15 03:55:29;;;;;;;0.30;0.30;;;;;;;;;;5084676;28;20020;-51
2022/10/15 03:57:55;;;;;;;0.30;0.30;;;;;;;;;;5083395;28;20027;-52
2022/10/15 04:00:21;;;;;;;0.40;0.40;;;;;;;;;;5084693;28;20025;-51
2022/10/15 04:02:47;;;;;;;0.30;0.30;;;;;;;;;;5084540;28;20131;-50
2022/10/15 04:05:13;;;;;;;0.30;0.30;;;;;;;;;;5084871;28;20574;-51
2022/10/15 04:07:39;;;;;;;0.30;0.30;;;;;;;;;;5084621;28;20081;-47
2022/10/15 04:10:05;;;;;;;0.20;0.20;;;;;;;;;;5088856;28;20032;-48
2022/10/15 04:12:31;;;;;;;0.30;0.30;;;;;;;;;;5087658;28;20043;-48
2022/10/15 04:14:57;;;;;;;0.50;0.40;;;;;;;;;;5089321;28;20020;-51
2022/10/15 04:17:24;;;;;;;0.32;0.32;;;;;;;;;;5077491;28;20500;-49
2022/10/15 04:19:50;;;;;;;0.20;0.20;;;;;;;;;;5068261;28;20021;-52
2022/10/15 04:22:16;;;;;;;0.20;0.20;;;;;;;;;;5068500;28;20111;-50
2022/10/15 04:24:43;;;;;;;0.45;0.32;;;;;;;;;;5069120;28;20112;-49
2022/10/15 04:27:09;;;;;;;0.30;0.30;;;;;;;;;;5089312;28;20028;-49
2022/10/15 04:29:35;;;;;;;0.40;0.40;;;;;;;;;;5088363;28;20069;-51
2022/10/15 04:32:02;;;;;;;0.30;0.30;;;;;;;;;;5087591;28;20499;-52
2022/10/15 04:34:28;;;;;;;0.50;0.50;;;;;;;;;;5084166;28;20032;-51
2022/10/15 04:36:54;;;;;;;0.40;0.40;;;;;;;;;;5079885;28;20513;-50
2022/10/15 04:39:20;;;;;;;0.47;0.40;;;;;;;;;;5089330;28;20029;-48
2022/10/15 04:41:47;;;;;;;0.40;0.40;;;;;;;;;;5089516;28;20028;-48
2022/10/15 04:44:13;;;;;;;0.40;0.40;;;;;;;;;;5089501;28;20551;-48
2022/10/15 04:46:40;;;;;;;0.73;0.40;;;;;;;;;;5089728;28;20024;-51
2022/10/15 04:49:06;;;;;;;0.30;0.30;;;;;;;;;;5088308;28;20016;-50
2022/10/15 04:51:32;;;;;;;0.40;0.40;;;;;;;;;;5089412;28;20058;-49
2022/10/15 04:53:58;;;;;;;0.40;0.40;;;;;;;;;;5089519;28;20487;-52
2022/10/15 04:56:24;;;;;;;0.57;0.40;;;;;;;;;;5089628;28;20028;-49
2022/10/15 04:58:50;;;;;;;0.40;0.40;;;;;;;;;;5089414;28;20495;-52
2022/10/15 05:01:17;;;;;;;0.38;0.38;;;;;;;;;;5089123;28;20153;-48
2022/10/15 05:03:44;;;;;;;0.30;0.30;;;;;;;;;;5087358;28;20044;-51
2022/10/15 05:06:11;;;;;;;0.32;0.32;;;;;;;;;;5089991;28;20028;-48
2022/10/15 05:08:40;;;;;;;0.32;0.32;;;;;;;;;;5089463;28;20020;-48
2022/10/15 05:11:11;;;;;;;0.38;0.30;;;;;;;;;;5083873;28;20021;-51
2022/10/15 05:13:37;;;;;;;0.52;0.45;;;;;;;;;;5080578;28;20024;-50
2022/10/15 05:16:13;;;;;;;0.60;0.60;;;;;;;;;;5068847;28;20089;-48
2022/10/15 05:18:40;;;;;;;0.40;0.40;;;;;;;;;;5084438;28;20032;-51
2022/10/15 05:21:06;;;;;;;0.32;0.32;;;;;;;;;;5088923;28;20021;-50
2022/10/15 05:23:33;;;;;;;0.77;0.57;;;;;;;;;;5088851;28;20034;-51
2022/10/15 05:25:59;;;;;;;0.55;0.50;;;;;;;;;;5088622;28;20081;-52
2022/10/15 05:28:26;;;;;;;0.50;0.40;;;;;;;;;;5079237;28;20024;-49
2022/10/15 05:30:52;;;;;;;0.50;0.50;;;;;;;;;;5082902;28;20024;-48
2022/10/15 05:33:18;;;;;;;1.33;0.52;;;;;;;;;;5068810;28;20506;-51
2022/10/15 05:35:44;;;;;;;0.60;0.40;;;;;;;;;;5068800;28;20056;-50
2022/10/15 05:38:10;;;;;;;0.70;0.57;;;;;;;;;;5069381;28;20115;-51
2022/10/15 05:40:36;;;;;;;0.50;0.50;;;;;;;;;;5071448;28;20027;-49
2022/10/15 05:43:02;;;;;;;0.50;0.50;;;;;;;;;;5088462;28;20031;-49
2022/10/15 05:45:28;;;;;;;0.50;0.40;;;;;;;;;;5088204;28;20046;-47
2022/10/15 05:47:54;;;;;;;0.40;0.40;;;;;;;;;;5088806;28;20077;-51
2022/10/15 05:50:21;;;;;;;0.68;0.50;;;;;;;;;;5088728;28;20020;-50
2022/10/15 05:52:47;;;;;;;0.52;0.52;;;;;;;;;;5088417;28;20487;-50
2022/10/15 05:55:13;;;;;;;0.38;0.38;;;;;;;;;;5088113;28;20550;-48
2022/10/15 05:57:40;;;;;;;0.40;0.40;;;;;;;;;;5088524;28;20033;-51
2022/10/15 06:00:07;;;;;;;0.55;0.47;;;;;;;;;;5086976;28;20051;-50
2022/10/15 06:02:33;;;;;;;0.63;0.50;;;;;;;;;;5068108;28;20615;-50
2022/10/15 06:04:59;;;;;;;0.50;0.50;;;;;;;;;;5073049;28;20792;-51
2022/10/15 06:07:26;;;;;;;1.13;0.55;;;;;;;;;;5086205;28;20028;-49
2022/10/15 06:09:52;;;;;;;0.60;0.47;;;;;;;;;;5080807;28;20020;-47
2022/10/15 06:12:18;;;;;;;0.47;0.40;;;;;;;;;;5079588;28;20083;-48
2022/10/15 06:14:44;;;;;;;0.55;0.50;;;;;;;;;;5085556;28;20410;-50
2022/10/15 06:17:10;;;;;;;1.60;0.40;;;;;;;;;;5081323;28;20031;-50
2022/10/15 06:19:36;;;;;;;0.57;0.57;;;;;;;;;;5086962;28;20050;-48
2022/10/15 06:22:02;;;;;;;0.85;0.77;;;;;;;;;;5079656;28;20628;-48
2022/10/15 06:24:28;;;;;;;0.80;0.40;;;;;;;;;;5077287;28;20800;-48
2022/10/15 06:26:54;;;;;;;0.40;0.40;;;;;;;;;;5085620;28;20119;-51
2022/10/15 06:29:20;;;;;;;0.70;0.60;;;;;;;;;;5076704;28;20107;-49
2022/10/15 06:31:46;;;;;;;0.85;0.45;;;;;;;;;;5088041;28;20908;-49
2022/10/15 06:34:13;;;;;;;0.60;0.60;;;;;;;;;;5088423;28;20080;-47
2022/10/15 06:36:39;;;;;;;2.22;0.50;;;;;;;;;;5088771;28;20822;-48
2022/10/15 06:39:05;;;;;;;0.50;0.50;;;;;;;;;;5089805;28;20032;-51
2022/10/15 06:41:31;;;;;;;0.80;0.60;;;;;;;;;;5087962;28;20575;-51
2022/10/15 06:43:57;;;;;;;0.38;0.38;;;;;;;;;;5088359;28;20024;-50
2022/10/15 06:46:23;;;;;;;0.50;0.50;;;;;;;;;;5074735;28;20494;-51
2022/10/15 06:48:50;;;;;;;0.40;0.40;;;;;;;;;;5068114;28;20784;-52
2022/10/15 06:51:17;;;;;;;0.43;0.43;;;;;;;;;;5067961;28;20029;-50
2022/10/15 06:53:43;;;;;;;0.63;0.50;;;;;;;;;;5067886;28;20039;-47
2022/10/15 06:56:09;;;;;;;0.50;0.50;;;;;;;;;;5068403;28;20708;-51
2022/10/15 06:58:35;;;;;;;0.57;0.57;;;;;;;;;;5080674;28;20031;-49
2022/10/15 07:01:02;;;;;;;0.47;0.47;;;;;;;;;;5081465;28;20479;-50
2022/10/15 07:03:28;;;;;;;0.50;0.45;;;;;;;;;;5070690;28;20020;-48
2022/10/15 07:05:54;;;;;;;0.40;0.40;;;;;;;;;;5071724;28;20040;-51
2022/10/15 07:08:20;;;;;;;0.50;0.50;;;;;;;;;;5085856;28;20024;-50
2022/10/15 07:10:47;;;;;;;0.50;0.50;;;;;;;;;;5076030;28;20028;-48
2022/10/15 07:13:13;;;;;;;0.45;0.40;;;;;;;;;;5069858;28;20020;-50
2022/10/15 07:15:39;;;;;;;0.40;0.40;;;;;;;;;;5076418;28;20077;-50
2022/10/15 07:18:05;;;;;;;0.50;0.50;;;;;;;;;;5071800;28;20044;-50
2022/10/15 07:20:31;;;;;;;0.60;0.60;;;;;;;;;;5069994;28;20028;-52
2022/10/15 07:22:58;;;;;;;0.60;0.60;;;;;;;;;;5075011;28;20522;-48
2022/10/15 07:25:25;;;;;;;0.63;0.63;;;;;;;;;;5072155;28;20024;-50
2022/10/15 07:27:51;;;;;;;0.90;0.60;;;;;;;;;;5070170;28;20111;-49
2022/10/15 07:30:17;;;;;;;0.68;0.68;;;;;;;;;;5073994;28;20028;-51
2022/10/15 07:32:43;;;;;;;0.73;0.60;;;;;;;;;;5074495;28;20039;-51
2022/10/15 07:35:09;;;;;;;0.65;0.60;;;;;;;;;;5071246;28;20051;-51
2022/10/15 07:37:35;;;;;;;0.40;0.40;;;;;;;;;;5081763;28;20024;-48
2022/10/15 07:40:01;;;;;;;0.50;0.50;;;;;;;;;;5085087;28;20663;-49
2022/10/15 07:42:27;;;;;;;1.08;0.63;;;;;;;;;;5071185;28;21720;-51
2022/10/15 07:44:53;;;;;;;1.52;0.70;;;;;;;;;;5086200;28;20419;-50
2022/10/15 07:47:20;;;;;;;0.50;0.50;;;;;;;;;;5072537;28;20114;-52
2022/10/15 07:49:46;;;;;;;0.60;0.60;;;;;;;;;;5085822;28;20036;-52
2022/10/15 07:52:13;;;;;;;0.40;0.40;;;;;;;;;;5085786;28;20024;-49
2022/10/15 07:54:40;;;;;;;1.40;0.60;;;;;;;;;;5076247;28;20103;-51
2022/10/15 07:57:06;;;;;;;0.60;0.60;;;;;;;;;;5078968;28;20107;-51
2022/10/15 07:59:32;;;;;;;0.70;0.60;;;;;;;;;;5079807;28;20037;-51
2022/10/15 08:01:58;;;;;;;0.60;0.50;;;;;;;;;;5079201;28;20032;-48
2022/10/15 08:04:24;;;;;;;0.30;0.30;;;;;;;;;;5085155;28;20115;-51
2022/10/15 08:06:50;;;;;;;0.40;0.40;;;;;;;;;;5072101;28;20058;-50
2022/10/15 08:09:16;;;;;;;0.35;0.35;;;;;;;;;;5066736;28;20500;-49
2022/10/15 08:11:42;;;;;;;0.50;0.50;;;;;;;;;;5066940;28;20516;-51
2022/10/15 08:14:08;;;;;;;0.30;0.30;;;;;;;;;;5067431;28;20032;-51
2022/10/15 08:16:34;;;;;;;0.50;0.50;;;;;;;;;;5066378;28;20071;-50
2022/10/15 08:19:01;;;;;;;0.40;0.40;;;;;;;;;;5077370;28;20036;-48
2022/10/15 08:21:27;;;;;;;0.40;0.40;;;;;;;;;;5086995;28;20107;-51
2022/10/15 08:23:53;;;;;;;0.45;0.45;;;;;;;;;;5086689;28;20032;-51
2022/10/15 08:26:19;;;;;;;0.30;0.30;;;;;;;;;;5086990;28;20052;-49
2022/10/15 08:28:45;;;;;;;0.30;0.30;;;;;;;;;;5086648;28;20150;-49
2022/10/15 08:31:11;;;;;;;0.38;0.38;;;;;;;;;;5087512;28;20564;-52
2022/10/15 08:33:37;;;;;;;0.25;0.25;;;;;;;;;;5084196;28;20027;-51
2022/10/15 08:36:05;;;;;;;0.40;0.40;;;;;;;;;;5086991;28;20036;-49
2022/10/15 08:38:31;;;;;;;0.40;0.40;;;;;;;;;;5086461;28;20028;-50
2022/10/15 08:40:59;;;;;;;0.40;0.40;;;;;;;;;;5086355;28;20051;-48
2022/10/15 08:43:28;;;;;;;0.40;0.40;;;;;;;;;;5102630;28;20092;-50
2022/10/15 08:46:00;;;;;;;0.20;0.20;;;;;;;;;;5086853;28;20032;-50
2022/10/15 08:48:44;;;;;;;0.30;0.30;;;;;;;;;;5085036;28;20020;-50
2022/10/15 08:51:12;;;;;;;0.38;0.35;;;;;;;;;;5067364;28;20024;-50
2022/10/15 08:53:44;;;;;;;0.22;0.22;;;;;;;;;;5067299;28;20025;-49
2022/10/15 08:56:19;;;;;;;0.25;0.25;;;;;;;;;;5070863;28;20029;-50
2022/10/15 08:58:48;;;;;;;0.40;0.40;;;;;;;;;;5069769;28;20114;-52
2022/10/15 09:01:34;;;;;;;0.40;0.40;;;;;;;;;;5085834;28;20131;-51
2022/10/15 09:04:00;;;;;;;0.30;0.30;;;;;;;;;;5090378;28;20036;-50
2022/10/15 09:06:37;;;;;;;0.30;0.30;;;;;;;;;;5083141;28;20052;-48
2022/10/15 09:09:12;;;;;;;0.28;0.28;;;;;;;;;;5085186;28;20080;-50
2022/10/15 09:11:38;;;;;;;0.45;0.40;;;;;;;;;;5090609;28;20105;-51
2022/10/15 09:14:05;;;;;;;0.30;0.30;;;;;;;;;;5090003;28;20028;-50
2022/10/15 09:16:36;;;;;;;0.30;0.30;;;;;;;;;;5087794;28;20044;-50
2022/10/15 09:19:04;;;;;;;0.43;0.40;;;;;;;;;;5087507;28;20532;-48
2022/10/15 09:21:32;;;;;;;0.30;0.30;;;;;;;;;;5076864;28;20036;-48
2022/10/15 09:24:00;;;;;;;0.30;0.30;;;;;;;;;;5068478;28;20112;-48
2022/10/15 09:26:38;;;;;;;0.28;0.28;;;;;;;;;;5068338;28;20491;-50
2022/10/15 09:29:17;;;;;;;0.30;0.30;;;;;;;;;;5068396;28;20574;-48
2022/10/15 09:31:48;;;;;;;0.30;0.30;;;;;;;;;;5068232;28;20032;-48
2022/10/15 09:34:20;;;;;;;0.30;0.30;;;;;;;;;;5068351;28;20025;-50
2022/10/15 09:36:50;;;;;;;2.58;0.77;;;;;;;;;;5067870;28;20157;-46
2022/10/15 09:39:31;;;;;;;0.40;0.40;;;;;;;;;;5072513;28;20070;-47
2022/10/15 09:42:09;;;;;;;0.40;0.30;;;;;;;;;;5085716;28;20051;-48
2022/10/15 09:44:37;;;;;;;0.40;0.40;;;;;;;;;;5084531;28;20149;-49
2022/10/15 09:47:14;;;;;;;0.30;0.30;;;;;;;;;;5077821;28;20028;-49
2022/10/15 09:49:41;;;;;;;0.60;0.60;;;;;;;;;;5073520;28;20024;-47
2022/10/15 09:52:12;;;;;;;0.40;0.40;;;;;;;;;;5068030;28;20016;-52
2022/10/15 09:54:38;;;;;;;0.25;0.25;;;;;;;;;;5082763;28;20042;-50
2022/10/15 09:57:07;;;;;;;0.45;0.40;;;;;;;;;;5085947;28;20032;-48
2022/10/15 09:59:34;;;;;;;0.77;0.50;;;;;;;;;;5077265;28;20097;-48
2022/10/15 10:02:04;;;;;;;0.30;0.30;;;;;;;;;;5072834;28;20020;-49
2022/10/15 10:04:32;;;;;;;0.50;0.50;;;;;;;;;;5087282;28;20040;-51
2022/10/15 10:07:03;;;;;;;0.40;0.40;;;;;;;;;;5087003;28;20032;-48
2022/10/15 10:09:30;;;;;;;0.30;0.30;;;;;;;;;;5080460;28;20036;-48
2022/10/15 10:11:58;;;;;;;0.30;0.30;;;;;;;;;;5080816;28;20028;-49
2022/10/15 10:14:32;;;;;;;0.75;0.40;;;;;;;;;;5075345;28;20032;-48
2022/10/15 10:17:14;;;;;;;0.40;0.40;;;;;;;;;;5071837;28;20036;-47
2022/10/15 10:19:40;;;;;;;0.50;0.40;;;;;;;;;;5082412;28;20059;-49
2022/10/15 10:22:17;;;;;;;0.98;0.57;;;;;;;;;;5072364;28;20062;-49
2022/10/15 10:24:44;;;;;;;0.57;0.40;;;;;;;;;;5081141;28;20036;-51
2022/10/15 10:27:18;;;;;;;0.40;0.40;;;;;;;;;;5084488;28;20028;-49
2022/10/15 10:29:47;;;;;;;0.88;0.55;;;;;;;;;;5088544;28;20085;-48
2022/10/15 10:32:26;;;;;;;0.30;0.30;;;;;;;;;;5079534;28;20040;-49
2022/10/15 10:34:53;;;;;;;0.47;0.47;;;;;;;;;;5069588;28;20033;-51
2022/10/15 10:37:20;;;;;;;0.30;0.30;;;;;;;;;;5082946;28;20556;-51
2022/10/15 10:39:51;;;;;;;0.30;0.30;;;;;;;;;;5087933;28;20039;-50
2022/10/15 10:42:18;;;;;;;0.40;0.40;;;;;;;;;;5086616;28;20494;-50
2022/10/15 10:44:45;;;;;;;1.05;0.40;;;;;;;;;;5073392;28;20111;-49
2022/10/15 10:47:17;;;;;;;1.63;0.50;;;;;;;;;;5087272;28;20031;-50
2022/10/15 10:49:48;;;;;;;0.40;0.40;;;;;;;;;;5071449;28;20075;-48
2022/10/15 10:52:19;;;;;;;0.73;0.45;;;;;;;;;;5068367;28;20028;-48
2022/10/15 10:54:46;;;;;;;0.45;0.45;;;;;;;;;;5078737;28;20027;-51
2022/10/15 10:57:16;;;;;;;3.90;0.40;;;;;;;;;;5080987;28;20115;-50
2022/10/15 10:59:45;;;;;;;0.85;0.30;;;;;;;;;;5070922;28;20727;-49
2022/10/15 11:02:12;;;;;;;0.90;0.55;;;;;;;;;;5068017;28;20043;-51
2022/10/15 11:04:39;;;;;;;0.50;0.30;;;;;;;;;;5081924;28;20111;-49
2022/10/15 11:07:16;;;;;;;0.20;0.20;;;;;;;;;;5068716;28;20043;-50
2022/10/15 11:10:01;;;;;;;0.30;0.30;;;;;;;;;;5076560;28;20462;-49
2022/10/15 11:12:35;;;;;;;0.50;0.40;;;;;;;;;;5074981;28;20102;-51
2022/10/15 11:15:04;;;;;;;0.63;0.40;;;;;;;;;;5073332;28;20400;-50
2022/10/15 11:17:30;;;;;;;0.30;0.30;;;;;;;;;;5068060;28;20081;-48
2022/10/15 11:20:05;;;;;;;1.23;0.30;;;;;;;;;;5068235;28;20032;-49
2022/10/15 11:22:43;;;;;;;0.40;0.40;;;;;;;;;;5074880;28;20117;-50
2022/10/15 11:25:27;;;;;;;1.88;0.40;;;;;;;;;;5072436;28;20032;-50
2022/10/15 11:28:08;;;;;;;0.50;0.40;;;;;;;;;;5073581;28;20038;-52
2022/10/15 11:30:53;;;;;;;0.30;0.30;;;;;;;;;;5067930;28;20097;-48
2022/10/15 11:33:31;;;;;;;0.25;0.25;;;;;;;;;;5078573;28;20027;-50
2022/10/15 11:36:06;;;;;;;0.30;0.30;;;;;;;;;;5078281;28;20141;-49
2022/10/15 11:38:55;;;;;;;0.20;0.20;;;;;;;;;;5082441;28;20027;-53
2022/10/15 11:41:39;;;;;;;0.40;0.30;;;;;;;;;;5070030;28;20553;-49
2022/10/15 11:44:08;;;;;;;0.43;0.30;;;;;;;;;;5076583;28;20113;-50
2022/10/15 11:46:37;;;;;;;0.28;0.28;;;;;;;;;;5067298;28;20040;-49
2022/10/15 11:49:17;;;;;;;0.30;0.30;;;;;;;;;;5078185;28;20028;-51
2022/10/15 11:51:49;;;;;;;0.20;0.20;;;;;;;;;;5078600;28;20374;-50
2022/10/15 11:54:24;;;;;;;0.30;0.30;;;;;;;;;;5070213;28;20024;-49
2022/10/15 11:56:51;;;;;;;1.55;0.30;;;;;;;;;;5070921;28;20036;-51
2022/10/15 11:59:26;;;;;;;0.52;0.30;;;;;;;;;;5075222;28;20020;-48
2022/10/15 12:01:59;;;;;;;0.52;0.30;;;;;;;;;;5079212;28;20085;-50
2022/10/15 12:04:25;;;;;;;0.40;0.40;;;;;;;;;;5066979;28;20029;-48
2022/10/15 12:06:53;;;;;;;1.27;0.30;;;;;;;;;;5071084;28;20040;-48
2022/10/15 12:09:24;;;;;;;0.35;0.32;;;;;;;;;;5080741;28;20067;-50
2022/10/15 12:11:55;;;;;;;0.22;0.22;;;;;;;;;;5069485;28;20035;-51
2022/10/15 12:14:30;;;;;;;0.30;0.30;;;;;;;;;;5078833;28;20039;-51
2022/10/15 12:17:02;;;;;;;0.30;0.30;;;;;;;;;;5069535;28;20084;-51
2022/10/15 12:19:33;;;;;;;0.65;0.32;;;;;;;;;;5072492;28;20029;-46
2022/10/15 12:22:05;;;;;;;0.28;0.20;;;;;;;;;;5071705;28;20033;-50
2022/10/15 12:24:43;;;;;;;0.20;0.20;;;;;;;;;;5067819;28;20028;-50
2022/10/15 12:27:18;;;;;;;0.30;0.30;;;;;;;;;;5073171;28;20033;-49
2022/10/15 12:29:51;;;;;;;0.30;0.30;;;;;;;;;;5076786;28;20054;-48
2022/10/15 12:32:25;;;;;;;0.20;0.20;;;;;;;;;;5090996;28;20048;-50
2022/10/15 12:34:59;;;;;;;0.40;0.35;;;;;;;;;;5090027;28;20020;-49
2022/10/15 12:37:26;;;;;;;0.30;0.30;;;;;;;;;;5089490;28;20131;-51
2022/10/15 12:40:01;;;;;;;0.47;0.45;;;;;;;;;;5078118;28;20032;-46
2022/10/15 12:42:28;;;;;;;0.30;0.30;;;;;;;;;;5087061;28;20028;-49
2022/10/15 12:44:56;;;;;;;0.28;0.28;;;;;;;;;;5082607;28;20055;-49
2022/10/15 12:47:40;;;;;;;0.20;0.20;;;;;;;;;;5076400;28;20031;-49
2022/10/15 12:50:16;;;;;;;0.77;0.45;;;;;;;;;;5085103;28;20024;-47
2022/10/15 12:52:51;;;;;;;0.80;0.30;;;;;;;;;;5071636;28;20089;-48
2022/10/15 12:55:23;;;;;;;0.40;0.40;;;;;;;;;;5078235;28;20033;-50
2022/10/15 12:57:57;;;;;;;0.30;0.30;;;;;;;;;;5087208;28;20113;-46
2022/10/15 13:00:26;;;;;;;0.47;0.47;;;;;;;;;;5087300;28;20082;-50
2022/10/15 13:02:54;;;;;;;0.90;0.40;;;;;;;;;;5086618;28;20028;-49
2022/10/15 13:05:25;;;;;;;1.10;0.35;;;;;;;;;;5067576;28;20483;-50
2022/10/15 13:07:53;;;;;;;0.50;0.50;;;;;;;;;;5083709;28;20618;-49
2022/10/15 13:10:21;;;;;;;0.82;0.40;;;;;;;;;;5087747;28;20248;-48
2022/10/15 13:12:54;;;;;;;0.40;0.40;;;;;;;;;;5086482;28;20381;-50
2022/10/15 13:15:22;;;;;;;0.55;0.50;;;;;;;;;;5085855;28;20039;-49
2022/10/15 13:17:48;;;;;;;0.57;0.52;;;;;;;;;;5088147;28;20028;-49
2022/10/15 13:20:47;;;;;;;0.30;0.30;;;;;;;;;;5087588;28;20032;-50
2022/10/15 13:23:20;;;;;;;0.50;0.40;;;;;;;;;;5055133;28;20089;-50
2022/10/15 13:25:47;;;;;;;0.40;0.40;;;;;;;;;;5070796;28;20431;-47
2022/10/15 13:28:35;;;;;;;0.75;0.47;;;;;;;;;;5081768;28;20452;-48
2022/10/15 13:31:02;;;;;;;0.52;0.50;;;;;;;;;;5087528;28;20499;-50
2022/10/15 13:33:28;;;;;;;0.35;0.35;;;;;;;;;;5087224;28;20016;-51
2022/10/15 13:35:54;;;;;;;0.73;0.40;;;;;;;;;;5072972;28;20071;-49
2022/10/15 13:38:23;;;;;;;0.65;0.40;;;;;;;;;;5066848;28;20687;-49
2022/10/15 13:40:50;;;;;;;0.70;0.40;;;;;;;;;;5075297;28;20103;-46
2022/10/15 13:43:18;;;;;;;0.30;0.30;;;;;;;;;;5070321;28;20069;-48
2022/10/15 13:45:48;;;;;;;0.40;0.40;;;;;;;;;;5067280;28;20455;-47
2022/10/15 13:48:20;;;;;;;0.50;0.50;;;;;;;;;;5067691;28;20044;-46
2022/10/15 13:50:47;;;;;;;0.47;0.47;;;;;;;;;;5083668;28;20095;-49
2022/10/15 13:53:13;;;;;;;0.60;0.60;;;;;;;;;;5087763;28;20032;-47
2022/10/15 13:55:43;;;;;;;0.45;0.45;;;;;;;;;;5088172;28;20480;-51
2022/10/15 13:58:18;;;;;;;0.43;0.40;;;;;;;;;;5083993;28;20088;-51
2022/10/15 14:00:50;;;;;;;1.08;0.47;;;;;;;;;;5069310;28;20036;-48
2022/10/15 14:03:17;;;;;;;0.55;0.55;;;;;;;;;;5072660;28;20032;-49
2022/10/15 14:05:44;;;;;;;0.77;0.40;;;;;;;;;;5085683;28;20036;-51
2022/10/15 14:08:17;;;;;;;1.75;0.52;;;;;;;;;;5082130;28;20024;-48
2022/10/15 14:10:44;;;;;;;0.47;0.47;;;;;;;;;;5085338;28;20059;-48
2022/10/15 14:13:11;;;;;;;0.75;0.65;;;;;;;;;;5079365;28;20374;-48
2022/10/15 14:15:42;;;;;;;0.60;0.50;;;;;;;;;;5083604;28;20106;-47
2022/10/15 14:18:09;;;;;;;0.68;0.30;;;;;;;;;;5086730;28;20027;-46
2022/10/15 14:20:35;;;;;;;0.43;0.40;;;;;;;;;;5086225;28;20062;-49
2022/10/15 14:23:02;;;;;;;1.27;0.70;;;;;;;;;;5085952;28;20023;-50
2022/10/15 14:25:28;;;;;;;0.60;0.50;;;;;;;;;;5071959;28;20028;-50
2022/10/15 14:27:55;;;;;;;0.50;0.50;;;;;;;;;;5065285;28;20051;-55
2022/10/15 14:30:27;;;;;;;0.50;0.50;;;;;;;;;;5079662;28;20055;-49
2022/10/15 14:32:53;;;;;;;1.00;0.55;;;;;;;;;;5080821;28;20490;-51
2022/10/15 14:35:32;;;;;;;2.38;0.50;;;;;;;;;;5085789;28;20058;-48
2022/10/15 14:38:14;;;;;;;0.40;0.40;;;;;;;;;;5086242;28;20100;-51
2022/10/15 14:40:55;;;;;;;0.50;0.40;;;;;;;;;;5085291;28;20055;-48
2022/10/15 14:43:28;;;;;;;0.80;0.57;;;;;;;;;;5071387;28;20032;-51
2022/10/15 14:45:56;;;;;;;1.17;0.52;;;;;;;;;;5065972;28;20082;-52
2022/10/15 14:48:24;;;;;;;0.52;0.40;;;;;;;;;;5085236;28;20023;-50
2022/10/15 14:50:50;;;;;;;0.32;0.32;;;;;;;;;;5085622;28;20024;-49
2022/10/15 14:53:18;;;;;;;0.85;0.45;;;;;;;;;;5083696;28;20032;-49
2022/10/15 14:55:52;;;;;;;0.30;0.30;;;;;;;;;;5071888;28;20068;-50